createdAt,value
2023-03-10T00:00:53.718Z,100.00
2023-03-10T00:03:20.294Z,100.00
2023-03-10T00:05:47.439Z,100.00
2023-03-10T00:08:14.124Z,100.00
2023-03-10T00:10:40.913Z,100.00
2023-03-10T00:13:07.415Z,100.00
2023-03-10T00:15:34.306Z,100.00
2023-03-10T00:18:01.003Z,100.00
2023-03-10T00:20:27.773Z,100.00
2023-03-10T00:22:54.343Z,100.00
2023-03-10T00:25:20.943Z,100.00
2023-03-10T00:27:47.539Z,100.00
2023-03-10T00:30:15.223Z,100.00
2023-03-10T00:32:42.110Z,100.00
2023-03-10T00:35:08.875Z,100.00
2023-03-10T00:37:39.029Z,100.00
2023-03-10T00:40:11.122Z,100.00
2023-03-10T00:42:37.720Z,100.00
2023-03-10T00:45:04.618Z,100.00
2023-03-10T00:47:31.229Z,100.00
2023-03-10T00:49:57.849Z,100.00
2023-03-10T00:52:24.723Z,100.00
2023-03-10T00:54:51.930Z,100.00
2023-03-10T00:57:18.539Z,100.00
2023-03-10T00:59:50.450Z,100.00
2023-03-10T01:02:18.805Z,100.00
2023-03-10T01:04:45.859Z,100.00
2023-03-10T01:07:12.503Z,100.00
2023-03-10T01:09:39.312Z,100.00
2023-03-10T01:12:06.648Z,100.00
2023-03-10T01:14:33.303Z,100.00
2023-03-10T01:17:00.011Z,100.00
2023-03-10T01:19:26.698Z,100.00
2023-03-10T01:21:53.561Z,100.00
2023-03-10T01:24:20.323Z,100.00
2023-03-10T01:26:46.786Z,100.00
2023-03-10T01:29:13.478Z,100.00
2023-03-10T01:31:42.277Z,100.00
2023-03-10T01:34:09.253Z,100.00
2023-03-10T01:36:35.841Z,100.00
2023-03-10T01:39:02.988Z,100.00
2023-03-10T01:41:29.827Z,100.00
2023-03-10T01:43:57.258Z,100.00
2023-03-10T01:46:44.092Z,100.00
2023-03-10T01:49:16.257Z,100.00
2023-03-10T01:51:46.132Z,100.00
2023-03-10T01:54:18.873Z,100.00
2023-03-10T01:56:46.519Z,100.00
2023-03-10T01:59:14.786Z,100.00
2023-03-10T02:01:41.481Z,100.00
2023-03-10T02:04:20.404Z,100.00
2023-03-10T02:06:48.409Z,100.00
2023-03-10T02:09:16.522Z,100.00
2023-03-10T02:11:43.256Z,100.00
2023-03-10T02:14:10.126Z,100.00
2023-03-10T02:16:36.959Z,100.00
2023-03-10T02:19:09.100Z,100.00
2023-03-10T02:21:49.884Z,100.00
2023-03-10T02:24:28.977Z,100.00
2023-03-10T02:27:19.195Z,100.00
2023-03-10T02:30:00.957Z,100.00
2023-03-10T02:32:31.934Z,100.00
2023-03-10T02:34:58.820Z,100.00
2023-03-10T02:37:30.307Z,100.00
2023-03-10T02:39:57.257Z,100.00
2023-03-10T02:42:27.222Z,100.00
2023-03-10T02:44:54.527Z,100.00
2023-03-10T02:47:21.309Z,100.00
2023-03-10T02:49:48.229Z,100.00
2023-03-10T02:52:35.557Z,100.00
2023-03-10T02:55:02.186Z,100.00
2023-03-10T02:57:28.731Z,100.00
2023-03-10T02:59:55.297Z,100.00
2023-03-10T03:02:22.011Z,100.00
2023-03-10T03:04:48.864Z,100.00
2023-03-10T03:07:15.563Z,100.00
2023-03-10T03:09:42.248Z,100.00
2023-03-10T03:12:09.660Z,100.00
2023-03-10T03:14:36.212Z,100.00
2023-03-10T03:17:03.379Z,100.00
2023-03-10T03:19:30.162Z,100.00
2023-03-10T03:21:56.806Z,100.00
2023-03-10T03:24:23.600Z,100.00
2023-03-10T03:26:50.346Z,100.00
2023-03-10T03:29:17.709Z,100.00
2023-03-10T03:31:44.421Z,100.00
2023-03-10T03:34:11.726Z,100.00
2023-03-10T03:36:38.358Z,100.00
2023-03-10T03:39:06.797Z,100.00
2023-03-10T03:41:34.229Z,100.00
2023-03-10T03:44:01.260Z,100.00
2023-03-10T03:46:27.870Z,100.00
2023-03-10T03:48:54.811Z,100.00
2023-03-10T03:51:21.521Z,100.00
2023-03-10T03:53:48.031Z,100.00
2023-03-10T03:56:14.668Z,100.00
2023-03-10T03:58:41.287Z,100.00
2023-03-10T04:01:07.804Z,100.00
2023-03-10T04:03:34.760Z,100.00
2023-03-10T04:06:01.859Z,100.00
2023-03-10T04:08:28.477Z,100.00
2023-03-10T04:10:55.950Z,100.00
2023-03-10T04:13:22.618Z,100.00
2023-03-10T04:15:49.307Z,100.00
2023-03-10T04:18:15.957Z,100.00
2023-03-10T04:20:42.705Z,100.00
2023-03-10T04:23:09.434Z,100.00
2023-03-10T04:25:36.624Z,100.00
2023-03-10T04:28:03.222Z,100.00
2023-03-10T04:30:30.036Z,100.00
2023-03-10T04:32:59.483Z,100.00
2023-03-10T04:35:26.410Z,100.00
2023-03-10T04:37:53.547Z,100.00
2023-03-10T04:40:20.462Z,100.00
2023-03-10T04:42:47.427Z,100.00
2023-03-10T04:45:14.285Z,100.00
2023-03-10T04:47:40.939Z,100.00
2023-03-10T04:50:07.899Z,100.00
2023-03-10T04:52:34.554Z,100.00
2023-03-10T04:55:01.196Z,100.00
2023-03-10T04:57:27.832Z,100.00
2023-03-10T04:59:54.605Z,100.00
2023-03-10T05:02:21.226Z,100.00
2023-03-10T05:04:48.013Z,100.00
2023-03-10T05:07:14.811Z,100.00
2023-03-10T05:09:41.416Z,100.00
2023-03-10T05:12:08.288Z,100.00
2023-03-10T05:14:34.901Z,100.00
2023-03-10T05:17:01.544Z,100.00
2023-03-10T05:19:29.001Z,100.00
2023-03-10T05:21:55.901Z,100.00
2023-03-10T05:24:22.638Z,100.00
2023-03-10T05:26:49.212Z,100.00
2023-03-10T05:29:15.850Z,100.00
2023-03-10T05:31:42.852Z,100.00
2023-03-10T05:34:09.345Z,100.00
2023-03-10T05:36:36.152Z,100.00
2023-03-10T05:39:02.923Z,100.00
2023-03-10T05:41:29.541Z,100.00
2023-03-10T05:43:56.368Z,100.00
2023-03-10T05:46:24.229Z,100.00
2023-03-10T05:48:50.997Z,100.00
2023-03-10T05:51:17.740Z,100.00
2023-03-10T05:53:44.438Z,100.00
2023-03-10T05:56:14.249Z,100.00
2023-03-10T05:58:41.743Z,100.00
2023-03-10T06:01:08.934Z,100.00
2023-03-10T06:03:37.048Z,100.00
2023-03-10T06:06:06.987Z,100.00
2023-03-10T06:08:34.119Z,100.00
2023-03-10T06:11:00.852Z,100.00
2023-03-10T06:13:27.629Z,100.00
2023-03-10T06:15:57.287Z,100.00
2023-03-10T06:18:24.255Z,100.00
2023-03-10T06:20:52.251Z,100.00
2023-03-10T06:23:18.937Z,100.00
2023-03-10T06:25:45.928Z,100.00
2023-03-10T06:28:12.897Z,100.00
2023-03-10T06:30:39.387Z,100.00
2023-03-10T06:33:05.992Z,100.00
2023-03-10T06:35:32.651Z,100.00
2023-03-10T06:37:59.204Z,100.00
2023-03-10T06:40:26.322Z,100.00
2023-03-10T06:42:52.997Z,100.00
2023-03-10T06:45:19.682Z,100.00
2023-03-10T06:47:46.186Z,100.00
2023-03-10T06:50:13.755Z,100.00
2023-03-10T06:52:42.820Z,100.00
2023-03-10T06:55:11.000Z,100.00
2023-03-10T06:57:38.167Z,100.00
2023-03-10T07:00:07.882Z,100.00
2023-03-10T07:02:34.556Z,100.00
2023-03-10T07:05:01.197Z,100.00
2023-03-10T07:07:28.026Z,100.00
2023-03-10T07:09:54.613Z,100.00
2023-03-10T07:12:21.182Z,100.00
2023-03-10T07:14:47.994Z,100.00
2023-03-10T07:17:14.618Z,100.00
2023-03-10T07:19:41.308Z,100.00
2023-03-10T07:22:11.001Z,100.00
2023-03-10T07:24:37.994Z,100.00
2023-03-10T07:27:04.949Z,100.00
2023-03-10T07:29:31.737Z,100.00
2023-03-10T07:31:58.345Z,100.00
2023-03-10T07:34:25.067Z,100.00
2023-03-10T07:36:51.654Z,100.00
2023-03-10T07:39:18.490Z,100.00
2023-03-10T07:41:45.190Z,100.00
2023-03-10T07:44:11.880Z,100.00
2023-03-10T07:46:38.401Z,100.00
2023-03-10T07:49:05.131Z,99.35
2023-03-10T07:51:32.016Z,97.48
2023-03-10T07:53:59.204Z,95.85
2023-03-10T07:56:25.958Z,96.22
2023-03-10T07:58:52.774Z,96.92
2023-03-10T08:01:21.178Z,96.11
2023-03-10T08:03:48.912Z,96.59
2023-03-10T08:06:21.281Z,98.49
2023-03-10T08:08:48.400Z,97.54
2023-03-10T08:11:15.381Z,96.84
2023-03-10T08:13:42.319Z,95.86
2023-03-10T08:16:09.290Z,94.89
2023-03-10T08:18:36.647Z,95.09
2023-03-10T08:21:05.641Z,94.59
2023-03-10T08:23:32.710Z,94.25
2023-03-10T08:26:05.613Z,93.88
2023-03-10T08:28:33.358Z,92.71
2023-03-10T08:31:05.401Z,92.70
2023-03-10T08:33:32.736Z,91.65
2023-03-10T08:36:03.531Z,90.49
2023-03-10T08:38:31.132Z,90.50
2023-03-10T08:40:58.336Z,89.47
2023-03-10T08:43:25.039Z,88.04
2023-03-10T08:45:51.797Z,85.15
2023-03-10T08:48:18.523Z,84.88
2023-03-10T08:50:45.344Z,86.16
2023-03-10T08:53:12.916Z,85.20
2023-03-10T08:55:39.793Z,84.19
2023-03-10T08:58:06.722Z,86.08
2023-03-10T09:00:33.507Z,85.00
2023-03-10T09:03:00.230Z,82.06
2023-03-10T09:05:28.335Z,83.29
2023-03-10T09:07:55.857Z,83.89
2023-03-10T09:10:23.902Z,84.33
2023-03-10T09:13:03.939Z,85.80
2023-03-10T09:15:41.655Z,85.66
2023-03-10T09:18:14.394Z,87.15
2023-03-10T09:20:41.884Z,87.91
2023-03-10T09:23:10.358Z,89.42
2023-03-10T09:25:37.213Z,89.33
2023-03-10T09:28:04.007Z,89.69
2023-03-10T09:30:31.027Z,88.60
2023-03-10T09:32:58.611Z,85.91
2023-03-10T09:35:25.323Z,83.42
2023-03-10T09:37:51.906Z,80.71
2023-03-10T09:40:20.614Z,81.92
2023-03-10T09:42:49.175Z,83.96
2023-03-10T09:45:47.649Z,83.57
2023-03-10T09:48:51.836Z,86.42
2023-03-10T09:51:24.495Z,86.66
2023-03-10T09:54:01.153Z,86.72
2023-03-10T09:56:34.134Z,88.44
2023-03-10T09:59:17.291Z,88.49
2023-03-10T10:01:47.724Z,89.27
2023-03-10T10:04:31.907Z,87.48
2023-03-10T10:07:00.120Z,85.30
2023-03-10T10:10:01.058Z,84.29
2023-03-10T10:12:28.166Z,81.23
2023-03-10T10:15:13.507Z,82.26
2023-03-10T10:18:12.168Z,83.61
2023-03-10T10:21:01.683Z,83.35
2023-03-10T10:23:31.206Z,84.01
2023-03-10T10:26:08.974Z,84.57
2023-03-10T10:28:42.407Z,84.78
2023-03-10T10:31:15.553Z,85.63
2023-03-10T10:34:02.163Z,86.28
2023-03-10T10:36:32.303Z,86.16
2023-03-10T10:39:00.365Z,87.00
2023-03-10T10:41:34.673Z,88.45
2023-03-10T10:44:14.786Z,86.77
2023-03-10T10:46:54.498Z,85.87
2023-03-10T10:49:26.202Z,86.18
2023-03-10T10:52:05.351Z,87.24
2023-03-10T10:54:42.128Z,86.10
2023-03-10T10:57:21.165Z,85.59
2023-03-10T10:59:48.239Z,84.17
2023-03-10T11:02:31.966Z,82.14
2023-03-10T11:05:16.859Z,81.95
2023-03-10T11:07:44.436Z,81.68
2023-03-10T11:10:18.885Z,83.93
2023-03-10T11:12:54.798Z,83.68
2023-03-10T11:15:38.084Z,82.36
2023-03-10T11:18:15.795Z,82.91
2023-03-10T11:20:54.894Z,82.00
2023-03-10T11:23:49.142Z,83.61
2023-03-10T11:26:34.961Z,85.38
2023-03-10T11:29:10.572Z,84.09
2023-03-10T11:31:56.127Z,85.49
2023-03-10T11:34:32.585Z,85.81
2023-03-10T11:37:03.324Z,86.00
2023-03-10T11:40:20.109Z,87.24
2023-03-10T11:43:18.551Z,88.38
2023-03-10T11:45:55.695Z,90.96
2023-03-10T11:48:25.172Z,94.40
2023-03-10T11:50:55.103Z,99.37
2023-03-10T11:53:30.497Z,99.17
2023-03-10T11:56:00.243Z,97.78
2023-03-10T11:59:08.771Z,99.55
2023-03-10T12:02:05.407Z,100.00
2023-03-10T12:04:50.604Z,100.00
2023-03-10T12:07:25.700Z,100.00
2023-03-10T12:09:57.716Z,99.66
2023-03-10T12:12:29.317Z,99.57
2023-03-10T12:14:59.461Z,100.00
2023-03-10T12:17:26.669Z,98.75
2023-03-10T12:20:20.377Z,95.88
2023-03-10T12:22:52.964Z,95.65
2023-03-10T12:25:28.626Z,95.29
2023-03-10T12:28:17.305Z,95.91
2023-03-10T12:30:48.328Z,94.49
2023-03-10T12:33:33.194Z,94.73
2023-03-10T12:36:05.466Z,94.47
2023-03-10T12:38:54.043Z,94.56
2023-03-10T12:41:26.455Z,94.67
2023-03-10T12:43:59.149Z,94.99
2023-03-10T12:46:47.106Z,94.21
2023-03-10T12:49:33.586Z,93.94
2023-03-10T12:52:19.112Z,94.13
2023-03-10T12:55:02.931Z,91.72
2023-03-10T12:57:32.503Z,91.84
2023-03-10T13:00:06.673Z,91.68
2023-03-10T13:02:46.829Z,92.31
2023-03-10T13:05:25.205Z,92.12
2023-03-10T13:07:59.606Z,92.05
2023-03-10T13:10:30.363Z,90.82
2023-03-10T13:13:02.359Z,91.38
2023-03-10T13:15:32.325Z,90.58
2023-03-10T13:18:21.817Z,90.82
2023-03-10T13:20:49.863Z,90.42
2023-03-10T13:23:27.789Z,88.67
2023-03-10T13:25:59.724Z,86.97
2023-03-10T13:28:29.687Z,85.91
2023-03-10T13:31:20.960Z,83.98
2023-03-10T13:33:53.706Z,82.68
2023-03-10T13:36:30.430Z,81.96
2023-03-10T13:38:58.630Z,80.22
2023-03-10T13:41:25.658Z,80.32
2023-03-10T13:43:54.784Z,80.46
2023-03-10T13:46:31.244Z,80.85
2023-03-10T13:49:06.552Z,81.21
2023-03-10T13:51:35.567Z,81.51
2023-03-10T13:54:20.916Z,81.57
2023-03-10T13:56:50.584Z,81.37
2023-03-10T13:59:22.226Z,82.67
2023-03-10T14:01:51.408Z,83.76
2023-03-10T14:04:38.111Z,84.16
2023-03-10T14:07:14.361Z,82.82
2023-03-10T14:09:41.540Z,82.11
2023-03-10T14:12:10.581Z,81.67
2023-03-10T14:14:41.861Z,82.33
2023-03-10T14:17:28.777Z,81.46
2023-03-10T14:19:55.552Z,82.36
2023-03-10T14:22:22.615Z,83.15
2023-03-10T14:24:49.541Z,82.39
2023-03-10T14:27:16.905Z,81.86
2023-03-10T14:29:50.175Z,82.51
2023-03-10T14:32:17.698Z,81.93
2023-03-10T14:34:44.962Z,81.72
2023-03-10T14:37:11.705Z,81.79
2023-03-10T14:39:38.558Z,81.91
2023-03-10T14:42:05.992Z,82.10
2023-03-10T14:44:33.064Z,81.01
2023-03-10T14:47:00.028Z,81.30
2023-03-10T14:49:27.883Z,81.22
2023-03-10T14:51:54.608Z,80.68
2023-03-10T14:54:24.180Z,81.80
2023-03-10T14:56:59.139Z,81.79
2023-03-10T14:59:28.178Z,83.45
2023-03-10T15:01:56.224Z,83.89
2023-03-10T15:04:23.043Z,84.91
2023-03-10T15:06:49.765Z,84.09
2023-03-10T15:09:17.152Z,85.44
2023-03-10T15:11:43.929Z,85.48
2023-03-10T15:14:17.616Z,85.66
2023-03-10T15:16:44.694Z,84.98
2023-03-10T15:19:17.597Z,84.34
2023-03-10T15:21:44.384Z,85.32
2023-03-10T15:24:11.185Z,85.40
2023-03-10T15:26:37.881Z,86.00
2023-03-10T15:29:04.704Z,86.45
2023-03-10T15:31:31.521Z,85.36
2023-03-10T15:33:58.285Z,85.53
2023-03-10T15:36:24.902Z,85.74
2023-03-10T15:38:53.175Z,86.72
2023-03-10T15:41:20.122Z,86.45
2023-03-10T15:43:47.026Z,87.02
2023-03-10T15:46:13.878Z,86.82
2023-03-10T15:48:40.811Z,87.45
2023-03-10T15:51:09.806Z,87.31
2023-03-10T15:53:37.387Z,87.75
2023-03-10T15:56:08.192Z,87.84
2023-03-10T15:58:35.174Z,88.74
2023-03-10T16:01:13.725Z,88.84
2023-03-10T16:03:40.204Z,90.17
2023-03-10T16:06:09.738Z,91.91
2023-03-10T16:08:40.209Z,92.21
2023-03-10T16:11:15.177Z,92.73
2023-03-10T16:13:42.023Z,92.92
2023-03-10T16:16:09.394Z,94.42
2023-03-10T16:18:36.338Z,94.20
2023-03-10T16:21:03.842Z,94.85
2023-03-10T16:23:32.401Z,96.49
2023-03-10T16:26:14.186Z,97.46
2023-03-10T16:28:43.823Z,99.13
2023-03-10T16:31:12.487Z,100.00
2023-03-10T16:33:39.897Z,100.00
2023-03-10T16:36:08.914Z,100.00
2023-03-10T16:38:36.449Z,100.00
2023-03-10T16:41:03.932Z,100.00
2023-03-10T16:43:32.101Z,100.00
2023-03-10T16:46:11.316Z,100.00
2023-03-10T16:48:42.277Z,100.00
2023-03-10T16:51:23.874Z,100.00
2023-03-10T16:53:51.853Z,100.00
2023-03-10T16:56:19.341Z,100.00
2023-03-10T16:58:46.081Z,100.00
2023-03-10T17:01:12.697Z,100.00
2023-03-10T17:03:42.141Z,100.00
2023-03-10T17:06:14.307Z,100.00
2023-03-10T17:08:41.916Z,100.00
2023-03-10T17:11:18.133Z,100.00
2023-03-10T17:13:47.473Z,100.00
2023-03-10T17:16:15.325Z,100.00
2023-03-10T17:18:42.172Z,100.00
2023-03-10T17:21:16.280Z,100.00
2023-03-10T17:23:43.720Z,100.00
2023-03-10T17:26:11.716Z,100.00
2023-03-10T17:28:39.930Z,100.00
2023-03-10T17:31:08.873Z,100.00
2023-03-10T17:33:35.639Z,100.00
2023-03-10T17:36:07.108Z,100.00
2023-03-10T17:38:34.721Z,100.00
2023-03-10T17:41:05.656Z,100.00
2023-03-10T17:43:34.573Z,100.00
2023-03-10T17:46:07.521Z,100.00
2023-03-10T17:48:34.731Z,100.00
2023-03-10T17:51:01.994Z,100.00
2023-03-10T17:53:28.745Z,100.00
2023-03-10T17:55:55.975Z,100.00
2023-03-10T17:58:23.100Z,100.00
2023-03-10T18:00:49.910Z,100.00
2023-03-10T18:03:17.766Z,100.00
2023-03-10T18:05:44.944Z,100.00
2023-03-10T18:08:12.523Z,100.00
2023-03-10T18:10:39.601Z,100.00
2023-03-10T18:13:09.473Z,100.00
2023-03-10T18:15:37.863Z,100.00
2023-03-10T18:18:04.751Z,100.00
2023-03-10T18:20:31.439Z,100.00
2023-03-10T18:22:58.126Z,100.00
2023-03-10T18:25:24.831Z,100.00
2023-03-10T18:27:51.548Z,100.00
2023-03-10T18:30:18.335Z,100.00
2023-03-10T18:32:45.163Z,100.00
2023-03-10T18:35:11.765Z,100.00
2023-03-10T18:37:38.368Z,100.00
2023-03-10T18:40:06.163Z,100.00
2023-03-10T18:42:33.347Z,100.00
2023-03-10T18:45:00.146Z,100.00
2023-03-10T18:47:26.852Z,100.00
2023-03-10T18:49:53.350Z,100.00
2023-03-10T18:52:19.940Z,100.00
2023-03-10T18:54:47.987Z,100.00
2023-03-10T18:57:15.421Z,100.00
2023-03-10T18:59:42.461Z,100.00
2023-03-10T19:02:14.958Z,100.00
2023-03-10T19:04:41.646Z,100.00
2023-03-10T19:07:08.454Z,100.00
2023-03-10T19:09:35.903Z,100.00
2023-03-10T19:12:02.520Z,100.00
2023-03-10T19:14:29.181Z,100.00
2023-03-10T19:16:55.762Z,100.00
2023-03-10T19:19:22.525Z,100.00
2023-03-10T19:21:49.651Z,100.00
2023-03-10T19:24:16.310Z,100.00
2023-03-10T19:26:43.601Z,100.00
2023-03-10T19:29:10.263Z,100.00
2023-03-10T19:31:36.883Z,100.00
2023-03-10T19:34:03.668Z,100.00
2023-03-10T19:36:30.302Z,100.00
2023-03-10T19:38:57.127Z,100.00
2023-03-10T19:41:23.892Z,100.00
2023-03-10T19:43:51.420Z,100.00
2023-03-10T19:46:19.463Z,100.00
2023-03-10T19:48:46.264Z,100.00
2023-03-10T19:51:30.932Z,100.00
2023-03-10T19:53:58.436Z,100.00
2023-03-10T19:56:27.947Z,100.00
2023-03-10T19:58:55.217Z,100.00
2023-03-10T20:01:27.048Z,100.00
2023-03-10T20:03:56.323Z,100.00
2023-03-10T20:06:23.958Z,100.00
2023-03-10T20:08:52.005Z,100.00
2023-03-10T20:11:19.768Z,100.00
2023-03-10T20:13:47.585Z,100.00
2023-03-10T20:16:15.388Z,100.00
2023-03-10T20:18:42.282Z,100.00
2023-03-10T20:21:09.191Z,100.00
2023-03-10T20:23:35.944Z,100.00
2023-03-10T20:26:08.579Z,100.00
2023-03-10T20:28:36.217Z,100.00
2023-03-10T20:31:03.684Z,100.00
2023-03-10T20:33:30.404Z,100.00
2023-03-10T20:35:57.279Z,100.00
2023-03-10T20:38:23.843Z,100.00
2023-03-10T20:40:50.632Z,100.00
2023-03-10T20:43:17.608Z,100.00
2023-03-10T20:45:44.323Z,100.00
2023-03-10T20:48:11.180Z,100.00
2023-03-10T20:50:37.886Z,100.00
2023-03-10T20:53:04.472Z,100.00
2023-03-10T20:55:32.213Z,100.00
2023-03-10T20:58:00.968Z,100.00
2023-03-10T21:00:29.279Z,100.00
2023-03-10T21:02:57.480Z,100.00
2023-03-10T21:05:26.423Z,100.00
2023-03-10T21:07:53.249Z,100.00
2023-03-10T21:10:20.534Z,100.00
2023-03-10T21:12:47.263Z,100.00
2023-03-10T21:15:16.159Z,100.00
2023-03-10T21:17:43.494Z,100.00
2023-03-10T21:20:11.454Z,100.00
2023-03-10T21:22:39.965Z,100.00
2023-03-10T21:25:09.290Z,100.00
2023-03-10T21:27:36.586Z,100.00
2023-03-10T21:30:07.259Z,100.00
2023-03-10T21:32:33.881Z,100.00
2023-03-10T21:35:00.528Z,100.00
2023-03-10T21:37:27.467Z,100.00
2023-03-10T21:39:54.140Z,100.00
2023-03-10T21:42:20.831Z,100.00
2023-03-10T21:44:48.641Z,100.00
2023-03-10T21:47:15.673Z,100.00
2023-03-10T21:49:42.285Z,100.00
2023-03-10T21:52:09.930Z,100.00
2023-03-10T21:54:36.560Z,100.00
2023-03-10T21:57:03.243Z,100.00
2023-03-10T21:59:29.988Z,100.00
2023-03-10T22:01:56.663Z,100.00
2023-03-10T22:04:23.302Z,100.00
2023-03-10T22:06:49.911Z,100.00
2023-03-10T22:09:16.628Z,100.00
2023-03-10T22:11:43.350Z,100.00
2023-03-10T22:14:11.038Z,100.00
2023-03-10T22:16:37.836Z,100.00
2023-03-10T22:19:04.909Z,100.00
2023-03-10T22:21:31.476Z,100.00
2023-03-10T22:23:59.969Z,100.00
2023-03-10T22:26:26.828Z,100.00
2023-03-10T22:28:53.543Z,100.00
2023-03-10T22:31:22.481Z,100.00
2023-03-10T22:33:49.233Z,100.00
2023-03-10T22:36:15.923Z,100.00
2023-03-10T22:38:42.549Z,100.00
2023-03-10T22:41:13.572Z,100.00
2023-03-10T22:43:40.857Z,100.00
2023-03-10T22:46:12.398Z,100.00
2023-03-10T22:48:39.419Z,100.00
2023-03-10T22:51:13.487Z,100.00
2023-03-10T22:53:40.373Z,100.00
2023-03-10T22:56:07.401Z,100.00
2023-03-10T22:58:33.982Z,100.00
2023-03-10T23:01:00.615Z,100.00
2023-03-10T23:03:27.248Z,100.00
2023-03-10T23:05:53.928Z,100.00
2023-03-10T23:08:20.550Z,100.00
2023-03-10T23:10:47.263Z,100.00
2023-03-10T23:13:15.832Z,100.00
2023-03-10T23:15:43.996Z,100.00
2023-03-10T23:18:11.184Z,100.00
2023-03-10T23:20:44.566Z,100.00
2023-03-10T23:23:14.800Z,100.00
2023-03-10T23:25:43.904Z,100.00
2023-03-10T23:28:11.374Z,100.00
2023-03-10T23:30:39.860Z,100.00
2023-03-10T23:33:09.965Z,100.00
2023-03-10T23:35:36.790Z,100.00
2023-03-10T23:38:05.784Z,100.00
2023-03-10T23:40:33.919Z,100.00
2023-03-10T23:43:02.546Z,100.00
2023-03-10T23:45:30.704Z,100.00
2023-03-10T23:47:58.969Z,100.00
2023-03-10T23:50:26.915Z,100.00
2023-03-10T23:52:54.173Z,100.00
2023-03-10T23:55:27.182Z,100.00
2023-03-10T23:57:54.023Z,100.00
